Time;durP1;ratioP1;P1;durP2;ratioP2;P2;SDS_P1;SDS_P2;PMS_P1;PMS_P2;Temp;Humidity;BMP_temperature;BMP_pressure;BME280_temperature;BME280_humidity;BME280_pressure;Samples;Min_cycle;Max_cycle;Signal;HPM_P1;HPM_P2
2023/01/11 00:01:20;;;;;;;1.83;1.23;;;;;;;;;;4973496;28;20027;-75
2023/01/11 00:03:45;;;;;;;6.57;2.60;;;;;;;;;;4972859;28;20744;-75
2023/01/11 00:06:12;;;;;;;3.15;1.30;;;;;;;;;;4972822;28;20023;-75
2023/01/11 00:08:40;;;;;;;2.40;1.10;;;;;;;;;;4963094;28;20030;-75
2023/01/11 00:11:13;;;;;;;4.50;1.52;;;;;;;;;;4988011;28;20027;-75
2023/01/11 00:13:38;;;;;;;4.28;1.40;;;;;;;;;;4972680;28;20069;-75
2023/01/11 00:16:06;;;;;;;2.35;1.23;;;;;;;;;;4972870;28;20125;-76
2023/01/11 00:18:31;;;;;;;2.97;1.38;;;;;;;;;;4967579;28;20390;-75
2023/01/11 00:20:56;;;;;;;3.63;1.15;;;;;;;;;;4970046;28;20031;-75
2023/01/11 00:23:22;;;;;;;4.40;1.13;;;;;;;;;;4972898;28;20022;-76
2023/01/11 00:25:50;;;;;;;3.78;1.40;;;;;;;;;;4970798;28;20019;-76
2023/01/11 00:28:15;;;;;;;3.38;1.20;;;;;;;;;;4972615;28;20038;-75
2023/01/11 00:30:41;;;;;;;2.92;1.30;;;;;;;;;;4972304;28;20049;-76
2023/01/11 00:33:11;;;;;;;4.85;1.35;;;;;;;;;;4971604;28;20038;-75
2023/01/11 00:35:39;;;;;;;5.60;1.10;;;;;;;;;;4972474;28;20058;-75
2023/01/11 00:38:04;;;;;;;2.45;1.10;;;;;;;;;;4970280;28;20070;-75
2023/01/11 00:40:30;;;;;;;5.90;1.38;;;;;;;;;;4967552;28;20457;-75
2023/01/11 00:48:24;;;;;;;2.42;1.02;;;;;;;;;;4972446;28;20041;-75
2023/01/11 00:50:54;;;;;;;2.28;1.02;;;;;;;;;;4971983;28;20026;-75
2023/01/11 00:53:19;;;;;;;1.30;1.20;;;;;;;;;;4971707;28;20113;-75
2023/01/11 00:55:44;;;;;;;2.88;1.30;;;;;;;;;;4970996;28;20307;-76
2023/01/11 00:58:10;;;;;;;2.88;1.30;;;;;;;;;;4972271;28;20031;-75
2023/01/11 01:00:35;;;;;;;2.22;1.40;;;;;;;;;;4969624;28;20057;-76
2023/01/11 01:03:01;;;;;;;2.80;1.25;;;;;;;;;;4971773;28;20015;-75
2023/01/11 01:05:26;;;;;;;4.22;1.60;;;;;;;;;;4972275;28;20026;-75
2023/01/11 01:07:52;;;;;;;5.38;1.33;;;;;;;;;;4971971;28;20578;-75
2023/01/11 01:10:20;;;;;;;5.55;1.42;;;;;;;;;;4972152;28;20035;-75
2023/01/11 01:15:30;;;;;;;3.00;1.15;;;;;;;;;;4967561;28;20445;-75
2023/01/11 01:17:55;;;;;;;4.45;1.50;;;;;;;;;;4986852;28;20050;-76
2023/01/11 01:20:22;;;;;;;3.42;1.10;;;;;;;;;;4971418;28;20025;-75
2023/01/11 01:22:50;;;;;;;3.58;1.40;;;;;;;;;;4965843;28;20050;-75
2023/01/11 01:25:17;;;;;;;4.00;1.63;;;;;;;;;;4985942;28;20603;-75
2023/01/11 01:27:45;;;;;;;3.97;1.65;;;;;;;;;;4970498;28;20061;-75
2023/01/11 01:30:12;;;;;;;3.13;1.20;;;;;;;;;;4969884;28;20023;-75
2023/01/11 01:32:37;;;;;;;3.58;1.40;;;;;;;;;;4984075;28;20105;-76
2023/01/11 01:35:02;;;;;;;4.18;1.48;;;;;;;;;;4986266;28;20117;-75
2023/01/11 01:37:28;;;;;;;2.35;1.10;;;;;;;;;;4971850;28;20114;-76
2023/01/11 01:39:55;;;;;;;2.95;1.13;;;;;;;;;;4986306;28;20477;-75
2023/01/11 01:42:22;;;;;;;3.08;1.40;;;;;;;;;;4968819;28;20030;-76
2023/01/11 01:45:02;;;;;;;3.72;1.30;;;;;;;;;;4969988;28;20026;-76
2023/01/11 01:47:35;;;;;;;3.25;1.45;;;;;;;;;;4970173;28;20109;-75
2023/01/11 01:50:11;;;;;;;2.10;0.90;;;;;;;;;;4970177;28;20027;-76
2023/01/11 01:52:36;;;;;;;3.22;0.93;;;;;;;;;;4968950;28;20027;-75
2023/01/11 01:55:08;;;;;;;4.70;1.45;;;;;;;;;;4965639;28;20113;-75
2023/01/11 01:57:38;;;;;;;3.58;2.25;;;;;;;;;;4971644;28;20049;-75
2023/01/11 02:00:08;;;;;;;;;;;;;;;;;;4971427;28;20034;-75
2023/01/11 02:02:35;;;;;;;;;;;;;;;;;;4970798;28;20258;-75
2023/01/11 02:05:01;;;;;;;1.52;1.10;;;;;;;;;;4971251;28;19910;-76
2023/01/11 02:07:36;;;;;;;1.65;1.55;;;;;;;;;;4970799;28;20035;-76
2023/01/11 02:10:16;;;;;;;3.67;1.60;;;;;;;;;;4965201;28;20031;-75
2023/01/11 02:13:01;;;;;;;3.40;1.30;;;;;;;;;;4969737;28;20023;-75
2023/01/11 02:15:27;;;;;;;1.40;1.10;;;;;;;;;;4970970;28;20390;-75
2023/01/11 02:17:53;;;;;;;2.72;1.20;;;;;;;;;;4970313;28;20050;-75
2023/01/11 02:20:39;;;;;;;2.08;1.13;;;;;;;;;;4970774;28;20027;-75
2023/01/11 02:23:32;;;;;;;5.18;1.73;;;;;;;;;;4970153;28;20101;-75
2023/01/11 02:26:22;;;;;;;1.42;1.05;;;;;;;;;;4967571;28;20126;-75
2023/01/11 02:28:59;;;;;;;3.55;1.20;;;;;;;;;;4969266;28;20058;-75
2023/01/11 02:31:33;;;;;;;1.13;0.98;;;;;;;;;;4972226;28;20497;-75
2023/01/11 02:34:26;;;;;;;2.53;1.40;;;;;;;;;;4964194;28;20035;-76
2023/01/11 02:37:12;;;;;;;3.10;1.10;;;;;;;;;;4970809;28;20034;-75
2023/01/11 02:40:01;;;;;;;3.63;1.50;;;;;;;;;;4969656;28;20509;-75
2023/01/11 02:46:01;;;;;;;2.30;1.40;;;;;;;;;;4967359;28;20049;-75
2023/01/11 02:48:48;;;;;;;3.22;1.20;;;;;;;;;;4951348;28;20054;-75
2023/01/11 02:51:26;;;;;;;2.70;2.05;;;;;;;;;;4970116;28;20180;-75
2023/01/11 02:54:01;;;;;;;1.20;1.10;;;;;;;;;;4970780;28;20494;-75
2023/01/11 02:56:31;;;;;;;3.60;1.20;;;;;;;;;;4970513;28;20034;-75
2023/01/11 02:59:00;;;;;;;;;;;;;;;;;;4969169;28;20137;-75
2023/01/11 03:01:25;;;;;;;2.95;1.15;;;;;;;;;;4972116;28;19922;-75
2023/01/11 03:03:52;;;;;;;3.28;1.38;;;;;;;;;;4974473;28;20359;-75
2023/01/11 03:06:20;;;;;;;2.97;1.23;;;;;;;;;;4974393;28;20027;-75
2023/01/11 03:09:10;;;;;;;3.13;1.00;;;;;;;;;;4972869;28;20274;-75
2023/01/11 03:14:36;;;;;;;1.75;1.30;;;;;;;;;;4972858;28;20441;-75
2023/01/11 03:17:16;;;;;;;1.75;1.10;;;;;;;;;;4974285;28;20040;-75
2023/01/11 03:19:54;;;;;;;2.35;1.25;;;;;;;;;;4974155;28;20122;-75
2023/01/11 03:22:43;;;;;;;5.43;1.40;;;;;;;;;;4989256;28;20494;-75
2023/01/11 03:25:41;;;;;;;2.90;0.90;;;;;;;;;;4970879;28;20033;-75
2023/01/11 03:28:12;;;;;;;3.20;1.25;;;;;;;;;;4972589;28;20046;-75
2023/01/11 03:30:50;;;;;;;1.52;1.20;;;;;;;;;;4973858;28;20105;-75
2023/01/11 03:33:31;;;;;;;0.80;0.80;;;;;;;;;;4973893;28;20117;-75
2023/01/11 03:36:02;;;;;;;1.58;1.10;;;;;;;;;;4970213;28;20027;-75
2023/01/11 03:38:46;;;;;;;7.13;1.30;;;;;;;;;;4973468;28;20031;-75
2023/01/11 03:41:19;;;;;;;2.92;1.25;;;;;;;;;;4973388;28;20018;-75
2023/01/11 03:43:51;;;;;;;2.50;0.82;;;;;;;;;;4973601;28;20054;-75
2023/01/11 03:46:25;;;;;;;1.48;0.95;;;;;;;;;;4968426;28;20026;-75
2023/01/11 03:48:59;;;;;;;2.58;1.13;;;;;;;;;;4973903;28;20023;-75
2023/01/11 03:51:27;;;;;;;2.92;0.80;;;;;;;;;;4973539;28;20030;-75
2023/01/11 03:53:57;;;;;;;3.28;1.00;;;;;;;;;;4973279;28;20027;-75
2023/01/11 03:56:37;;;;;;;1.40;0.88;;;;;;;;;;4969088;28;20478;-75
2023/01/11 03:59:03;;;;;;;2.22;1.30;;;;;;;;;;4973385;28;20109;-75
2023/01/11 04:01:28;;;;;;;3.28;1.30;;;;;;;;;;4972098;28;20594;-75
2023/01/11 04:03:54;;;;;;;2.33;0.90;;;;;;;;;;4987725;28;20026;-75
2023/01/11 04:06:20;;;;;;;1.63;1.00;;;;;;;;;;4973364;28;20062;-75
2023/01/11 04:08:45;;;;;;;14.38;1.17;;;;;;;;;;4988439;28;20019;-75
2023/01/11 04:11:10;;;;;;;1.15;1.05;;;;;;;;;;4967322;28;20030;-75
2023/01/11 04:13:36;;;;;;;2.28;1.02;;;;;;;;;;4971174;28;20493;-75
2023/01/11 04:16:01;;;;;;;2.90;1.17;;;;;;;;;;4973286;28;20030;-75
2023/01/11 04:18:27;;;;;;;2.33;0.95;;;;;;;;;;4973086;28;20038;-75
2023/01/11 04:20:52;;;;;;;1.48;1.13;;;;;;;;;;4973140;28;20026;-75
2023/01/11 04:23:17;;;;;;;1.95;1.02;;;;;;;;;;4972649;28;20023;-75
2023/01/11 04:25:43;;;;;;;2.83;1.25;;;;;;;;;;4965025;28;20043;-75
2023/01/11 04:28:08;;;;;;;1.00;0.90;;;;;;;;;;4973031;28;20022;-75
2023/01/11 04:30:34;;;;;;;2.63;1.10;;;;;;;;;;4987601;28;20034;-75
2023/01/11 04:33:00;;;;;;;1.83;1.20;;;;;;;;;;4970932;28;20030;-75
2023/01/11 04:35:26;;;;;;;1.98;1.20;;;;;;;;;;4971770;28;20043;-75
2023/01/11 04:37:56;;;;;;;3.40;1.23;;;;;;;;;;4961016;28;20097;-75
2023/01/11 04:40:21;;;;;;;2.05;1.20;;;;;;;;;;4987355;28;20030;-75
2023/01/11 04:42:47;;;;;;;1.23;1.13;;;;;;;;;;4972603;28;20048;-75
2023/01/11 04:45:12;;;;;;;2.03;1.13;;;;;;;;;;4972008;28;20038;-75
2023/01/11 04:47:38;;;;;;;1.70;1.00;;;;;;;;;;4972034;28;20025;-75
2023/01/11 04:50:04;;;;;;;3.63;1.17;;;;;;;;;;4971638;28;20359;-76
2023/01/11 04:52:29;;;;;;;1.30;1.00;;;;;;;;;;4970699;28;20046;-76
2023/01/11 04:55:00;;;;;;;2.65;1.10;;;;;;;;;;4970153;28;20065;-76
2023/01/11 04:57:25;;;;;;;1.77;1.25;;;;;;;;;;4972452;28;20023;-76
2023/01/11 04:59:51;;;;;;;3.50;1.52;;;;;;;;;;4971435;28;20050;-76
2023/01/11 05:02:16;;;;;;;2.10;1.30;;;;;;;;;;4971672;28;20054;-74
2023/01/11 05:04:44;;;;;;;2.42;1.50;;;;;;;;;;4971095;28;20385;-76
2023/01/11 05:07:10;;;;;;;3.80;1.50;;;;;;;;;;4968444;28;20162;-76
2023/01/11 05:09:36;;;;;;;3.30;1.45;;;;;;;;;;4968620;28;20093;-76
2023/01/11 05:12:07;;;;;;;2.47;1.60;;;;;;;;;;4968302;28;20031;-77
2023/01/11 05:14:32;;;;;;;5.05;2.72;;;;;;;;;;4971801;28;20122;-77
2023/01/11 05:16:57;;;;;;;3.72;1.92;;;;;;;;;;4970741;28;20114;-77
2023/01/11 05:19:23;;;;;;;2.42;1.48;;;;;;;;;;4971874;28;20085;-77
2023/01/11 05:21:48;;;;;;;2.95;1.30;;;;;;;;;;4970916;28;20038;-77
2023/01/11 05:24:15;;;;;;;2.25;1.30;;;;;;;;;;4962269;28;20027;-78
2023/01/11 05:26:42;;;;;;;2.22;1.70;;;;;;;;;;4983608;28;20073;-77
2023/01/11 05:29:10;;;;;;;2.65;1.30;;;;;;;;;;4956855;28;20568;-77
2023/01/11 05:31:40;;;;;;;2.63;1.05;;;;;;;;;;4957124;28;20051;-77
2023/01/11 05:34:06;;;;;;;2.70;1.48;;;;;;;;;;4960315;28;20019;-77
2023/01/11 05:36:32;;;;;;;1.42;1.20;;;;;;;;;;4962379;28;20038;-78
2023/01/11 05:39:00;;;;;;;3.50;1.58;;;;;;;;;;4974629;28;20035;-77
2023/01/11 05:41:29;;;;;;;4.63;1.40;;;;;;;;;;4969030;28;20019;-77
2023/01/11 05:46:41;;;;;;;1.77;0.93;;;;;;;;;;4970568;28;20097;-75
2023/01/11 05:49:07;;;;;;;2.00;1.10;;;;;;;;;;4960753;28;20031;-77
2023/01/11 05:51:36;;;;;;;2.60;1.10;;;;;;;;;;4970024;28;20093;-76
2023/01/11 05:54:04;;;;;;;2.42;1.13;;;;;;;;;;4964278;28;20081;-76
2023/01/11 05:56:29;;;;;;;3.33;1.80;;;;;;;;;;4967073;28;20034;-75
2023/01/11 05:58:55;;;;;;;1.35;1.10;;;;;;;;;;4968341;28;20418;-76
2023/01/11 06:01:22;;;;;;;3.10;1.52;;;;;;;;;;4969617;28;20037;-76
2023/01/11 06:03:48;;;;;;;2.22;1.98;;;;;;;;;;4986741;28;20023;-75
2023/01/11 06:06:17;;;;;;;2.40;1.30;;;;;;;;;;4972621;28;20029;-77
2023/01/11 06:08:42;;;;;;;2.78;1.77;;;;;;;;;;4971969;28;20363;-77
2023/01/11 06:11:08;;;;;;;2.97;1.70;;;;;;;;;;4971863;28;20045;-77
2023/01/11 06:13:33;;;;;;;4.68;2.28;;;;;;;;;;4957069;28;20428;-77
2023/01/11 06:16:15;;;;;;;3.38;1.90;;;;;;;;;;4954582;28;20034;-77
2023/01/11 06:18:43;;;;;;;1.73;1.33;;;;;;;;;;4954795;28;20023;-77
2023/01/11 06:21:10;;;;;;;3.25;1.75;;;;;;;;;;4967410;28;20474;-75
2023/01/11 06:23:38;;;;;;;1.30;1.17;;;;;;;;;;4966879;28;20105;-77
2023/01/11 06:26:06;;;;;;;3.67;1.73;;;;;;;;;;4963548;28;20022;-76
2023/01/11 06:28:31;;;;;;;2.45;1.60;;;;;;;;;;4958864;28;20034;-77
2023/01/11 06:30:59;;;;;;;2.55;1.20;;;;;;;;;;4956340;28;20023;-76
2023/01/11 06:33:26;;;;;;;2.30;1.40;;;;;;;;;;4964161;28;20026;-76
2023/01/11 06:35:52;;;;;;;1.42;1.02;;;;;;;;;;4956924;28;20414;-77
2023/01/11 06:38:20;;;;;;;1.40;1.08;;;;;;;;;;4975674;28;20102;-77
2023/01/11 06:40:54;;;;;;;2.25;1.20;;;;;;;;;;4961655;28;20146;-77
2023/01/11 06:43:20;;;;;;;3.67;1.45;;;;;;;;;;4970818;28;20058;-76
2023/01/11 06:45:49;;;;;;;3.53;1.77;;;;;;;;;;4962955;28;20478;-77
2023/01/11 06:48:15;;;;;;;1.65;1.40;;;;;;;;;;4962153;28;20391;-77
2023/01/11 06:50:41;;;;;;;2.70;1.90;;;;;;;;;;4962675;28;20023;-75
2023/01/11 06:53:06;;;;;;;3.33;1.30;;;;;;;;;;4972342;28;20554;-77
2023/01/11 06:55:34;;;;;;;4.43;1.77;;;;;;;;;;4973899;28;20027;-77
2023/01/11 06:57:59;;;;;;;3.10;1.70;;;;;;;;;;4967167;28;20393;-76
2023/01/11 07:00:25;;;;;;;3.17;2.22;;;;;;;;;;4973356;28;20031;-77
2023/01/11 07:02:50;;;;;;;3.90;2.65;;;;;;;;;;4971582;28;20027;-77
2023/01/11 07:05:16;;;;;;;2.33;1.73;;;;;;;;;;4966824;28;20023;-77
2023/01/11 07:07:44;;;;;;;2.92;1.98;;;;;;;;;;4958514;28;20028;-76
2023/01/11 07:10:15;;;;;;;2.10;1.50;;;;;;;;;;4966597;28;20030;-77
2023/01/11 07:12:41;;;;;;;2.85;1.80;;;;;;;;;;4971707;28;20038;-77
2023/01/11 07:15:09;;;;;;;6.50;2.75;;;;;;;;;;4964011;28;20038;-77
2023/01/11 07:17:35;;;;;;;4.22;2.03;;;;;;;;;;4972523;28;20031;-77
2023/01/11 07:20:01;;;;;;;4.10;1.90;;;;;;;;;;4973895;28;20029;-77
2023/01/11 07:22:27;;;;;;;4.80;2.00;;;;;;;;;;4973889;28;20046;-76
2023/01/11 07:24:52;;;;;;;3.33;1.40;;;;;;;;;;4965144;28;20073;-76
2023/01/11 07:27:21;;;;;;;2.50;1.80;;;;;;;;;;4974020;28;20042;-76
2023/01/11 07:29:46;;;;;;;1.92;1.30;;;;;;;;;;4988710;28;20062;-77
2023/01/11 07:32:13;;;;;;;2.92;1.67;;;;;;;;;;4973117;28;20065;-76
2023/01/11 07:34:38;;;;;;;2.30;1.30;;;;;;;;;;4973587;28;20027;-76
2023/01/11 07:37:08;;;;;;;1.70;1.50;;;;;;;;;;4973926;28;20023;-77
2023/01/11 07:39:33;;;;;;;;;;;;;;;;;;4971634;28;20018;-76
2023/01/11 07:44:45;;;;;;;2.00;1.48;;;;;;;;;;4973761;28;20055;-77
2023/01/11 07:47:13;;;;;;;2.88;1.90;;;;;;;;;;4972923;28;20113;-76
2023/01/11 07:49:40;;;;;;;1.88;1.30;;;;;;;;;;4972304;28;20042;-77
2023/01/11 07:52:08;;;;;;;3.85;1.10;;;;;;;;;;4972812;28;20058;-76
2023/01/11 07:54:38;;;;;;;1.92;1.40;;;;;;;;;;4973286;28;20026;-76
2023/01/11 07:57:03;;;;;;;1.65;1.20;;;;;;;;;;4973279;28;20030;-76
2023/01/11 07:59:29;;;;;;;2.15;1.40;;;;;;;;;;4965630;28;20031;-77
2023/01/11 08:01:54;;;;;;;3.35;1.27;;;;;;;;;;4970950;28;20093;-76
2023/01/11 08:04:20;;;;;;;1.95;1.10;;;;;;;;;;4967132;28;20015;-76
2023/01/11 08:06:45;;;;;;;1.25;1.15;;;;;;;;;;4968945;28;20062;-76
2023/01/11 08:09:11;;;;;;;2.20;1.33;;;;;;;;;;4972630;28;20062;-76
2023/01/11 08:14:38;;;;;;;3.10;1.50;;;;;;;;;;4968854;28;20088;-77
2023/01/11 08:17:11;;;;;;;2.53;1.30;;;;;;;;;;4972795;28;20022;-75
2023/01/11 08:19:43;;;;;;;2.60;1.20;;;;;;;;;;4958649;28;20041;-76
2023/01/11 08:22:09;;;;;;;2.95;1.25;;;;;;;;;;4973164;28;20493;-75
2023/01/11 08:24:36;;;;;;;2.85;1.50;;;;;;;;;;4972891;28;20031;-75
2023/01/11 08:27:03;;;;;;;4.18;1.33;;;;;;;;;;4972942;28;20066;-75
2023/01/11 08:29:30;;;;;;;0.95;0.95;;;;;;;;;;4972904;28;20545;-75
2023/01/11 08:31:56;;;;;;;1.65;1.02;;;;;;;;;;4972622;28;20026;-77
2023/01/11 08:34:26;;;;;;;1.77;1.10;;;;;;;;;;4972914;28;20047;-76
2023/01/11 08:36:52;;;;;;;1.88;1.23;;;;;;;;;;4973186;28;20030;-76
2023/01/11 08:39:17;;;;;;;1.40;1.30;;;;;;;;;;4973292;28;20555;-77
2023/01/11 08:41:45;;;;;;;2.50;1.20;;;;;;;;;;4973485;28;20027;-75
2023/01/11 08:44:10;;;;;;;2.55;1.20;;;;;;;;;;4973119;28;20023;-76
2023/01/11 08:46:38;;;;;;;2.15;1.02;;;;;;;;;;4972591;28;20031;-76
2023/01/11 08:49:09;;;;;;;1.60;1.50;;;;;;;;;;4971047;28;20022;-76
2023/01/11 08:51:35;;;;;;;2.65;1.17;;;;;;;;;;4971191;28;20445;-75
2023/01/11 08:54:00;;;;;;;0.90;0.90;;;;;;;;;;4972377;28;20116;-75
2023/01/11 08:56:28;;;;;;;1.58;1.17;;;;;;;;;;4987171;28;20026;-75
2023/01/11 08:58:53;;;;;;;1.70;0.95;;;;;;;;;;4965852;28;20023;-77
2023/01/11 09:01:19;;;;;;;1.90;1.23;;;;;;;;;;4970999;28;20034;-76
2023/01/11 09:03:46;;;;;;;1.88;1.10;;;;;;;;;;4972863;28;20015;-76
2023/01/11 09:06:12;;;;;;;2.35;1.10;;;;;;;;;;4987530;28;20596;-77
2023/01/11 09:08:37;;;;;;;1.65;1.20;;;;;;;;;;4986981;28;20109;-76
2023/01/11 09:11:52;;;;;;;2.65;1.05;;;;;;;;;;4982485;28;20033;-76
2023/01/11 09:13:48;;;;;;;1.50;1.17;;;;;;;;;;4960836;28;20074;-76
2023/01/11 09:16:13;;;;;;;1.90;1.08;;;;;;;;;;4968873;28;20023;-75
2023/01/11 09:18:39;;;;;;;1.35;1.20;;;;;;;;;;4968141;28;20034;-76
2023/01/11 09:21:05;;;;;;;1.83;1.20;;;;;;;;;;4967226;28;20023;-76
2023/01/11 09:23:30;;;;;;;1.52;1.10;;;;;;;;;;4964149;28;20062;-76
2023/01/11 09:25:55;;;;;;;1.60;1.00;;;;;;;;;;4972055;28;20089;-76
2023/01/11 09:28:21;;;;;;;1.20;1.10;;;;;;;;;;4971790;28;20111;-75
2023/01/11 09:30:46;;;;;;;2.55;1.08;;;;;;;;;;4970329;28;20518;-76
2023/01/11 09:33:14;;;;;;;2.05;0.90;;;;;;;;;;4966345;28;20023;-76
2023/01/11 09:35:41;;;;;;;2.33;1.10;;;;;;;;;;4968544;28;20486;-76
2023/01/11 09:38:06;;;;;;;1.65;1.15;;;;;;;;;;4966808;28;20031;-76
2023/01/11 09:40:44;;;;;;;1.10;0.88;;;;;;;;;;4970204;28;20029;-77
2023/01/11 09:43:15;;;;;;;1.00;0.90;;;;;;;;;;4972003;28;20045;-76
2023/01/11 09:45:45;;;;;;;2.17;1.30;;;;;;;;;;4969877;28;20165;-76
2023/01/11 09:48:27;;;;;;;3.22;1.60;;;;;;;;;;4971823;28;20026;-76
2023/01/11 09:50:53;;;;;;;1.83;1.20;;;;;;;;;;4970748;28;20528;-75
2023/01/11 09:53:27;;;;;;;2.25;1.45;;;;;;;;;;4971725;28;20118;-76
2023/01/11 09:55:56;;;;;;;2.08;1.15;;;;;;;;;;4971275;28;20031;-77
2023/01/11 09:58:37;;;;;;;;;;;;;;;;;;4965496;28;20096;-76
2023/01/11 10:01:09;;;;;;;1.38;1.00;;;;;;;;;;4971463;28;19968;-77
2023/01/11 10:03:58;;;;;;;1.40;1.10;;;;;;;;;;4970027;28;20015;-76
2023/01/11 10:06:25;;;;;;;1.15;0.90;;;;;;;;;;4971378;28;20110;-75
2023/01/11 10:08:54;;;;;;;1.73;1.08;;;;;;;;;;4970982;28;20850;-76
2023/01/11 10:11:47;;;;;;;1.63;0.90;;;;;;;;;;4970491;28;20027;-75
2023/01/11 10:14:48;;;;;;;3.67;1.27;;;;;;;;;;4970972;28;20126;-76
2023/01/11 10:17:39;;;;;;;2.38;1.00;;;;;;;;;;4965966;28;20023;-77
2023/01/11 10:20:19;;;;;;;1.42;1.10;;;;;;;;;;4963418;28;20054;-76
2023/01/11 10:22:47;;;;;;;1.30;1.00;;;;;;;;;;4971411;28;20536;-76
2023/01/11 10:25:25;;;;;;;2.65;1.30;;;;;;;;;;4969555;28;20034;-75
2023/01/11 10:27:57;;;;;;;1.02;0.93;;;;;;;;;;4967074;28;20490;-75
2023/01/11 10:41:37;;;;;;;1.23;1.10;;;;;;;;;;4965450;28;20031;-75
2023/01/11 10:44:08;;;;;;;1.58;1.02;;;;;;;;;;4981631;28;20051;-76
2023/01/11 10:46:43;;;;;;;1.80;1.42;;;;;;;;;;4968281;28;20114;-76
2023/01/11 10:49:14;;;;;;;1.75;1.20;;;;;;;;;;4979976;28;20121;-75
2023/01/11 10:51:47;;;;;;;1.30;1.10;;;;;;;;;;4969625;28;20041;-75
2023/01/11 10:54:21;;;;;;;1.55;1.17;;;;;;;;;;4965304;28;20054;-76
2023/01/11 10:56:53;;;;;;;4.45;1.15;;;;;;;;;;4969895;28;20433;-77
2023/01/11 10:59:33;;;;;;;2.35;1.40;;;;;;;;;;4964806;28;20032;-76
2023/01/11 11:02:05;;;;;;;1.50;1.08;;;;;;;;;;4957996;28;20088;-76
2023/01/11 11:04:57;;;;;;;1.45;1.20;;;;;;;;;;4970395;28;20058;-76
2023/01/11 11:07:25;;;;;;;1.08;0.95;;;;;;;;;;4963722;28;20486;-75
2023/01/11 11:10:20;;;;;;;1.73;1.38;;;;;;;;;;4968615;28;20122;-77
2023/01/11 11:13:05;;;;;;;1.98;1.25;;;;;;;;;;4970473;28;20378;-76
2023/01/11 11:15:39;;;;;;;1.88;1.25;;;;;;;;;;4970658;28;20037;-76
2023/01/11 11:18:05;;;;;;;2.30;1.30;;;;;;;;;;4970134;28;20050;-76
2023/01/11 11:20:32;;;;;;;1.20;1.10;;;;;;;;;;4968865;28;20026;-75
2023/01/11 11:22:58;;;;;;;2.20;1.40;;;;;;;;;;4972884;28;20153;-75
2023/01/11 11:25:36;;;;;;;3.22;2.42;;;;;;;;;;4972904;28;20058;-76
2023/01/11 11:28:13;;;;;;;3.03;1.60;;;;;;;;;;4972531;28;20034;-76
2023/01/11 11:30:45;;;;;;;1.58;1.20;;;;;;;;;;4976099;28;20030;-76
2023/01/11 11:33:34;;;;;;;1.40;1.30;;;;;;;;;;4988714;28;20030;-76
2023/01/11 11:36:04;;;;;;;1.77;1.10;;;;;;;;;;4977418;28;20023;-76
2023/01/11 11:38:38;;;;;;;1.17;1.08;;;;;;;;;;4970312;28;20027;-75
2023/01/11 11:41:05;;;;;;;1.75;1.10;;;;;;;;;;4976141;28;20034;-76
2023/01/11 11:43:33;;;;;;;3.72;1.88;;;;;;;;;;4967241;28;20050;-75
2023/01/11 11:46:02;;;;;;;2.42;1.83;;;;;;;;;;4968369;28;20030;-76
2023/01/11 11:48:31;;;;;;;1.70;1.25;;;;;;;;;;4967871;28;20034;-77
2023/01/11 11:50:59;;;;;;;1.30;1.20;;;;;;;;;;4971854;28;20346;-77
2023/01/11 11:53:52;;;;;;;1.60;1.50;;;;;;;;;;4973628;28;20035;-75
2023/01/11 11:56:27;;;;;;;2.03;1.45;;;;;;;;;;4983619;28;20027;-76
2023/01/11 11:58:54;;;;;;;2.15;1.90;;;;;;;;;;4964241;28;20178;-76
2023/01/11 12:01:33;;;;;;;2.53;2.33;;;;;;;;;;4973672;28;20034;-75
2023/01/11 12:04:38;;;;;;;3.30;2.17;;;;;;;;;;4964415;28;20023;-76
2023/01/11 12:07:22;;;;;;;1.50;1.40;;;;;;;;;;4967190;28;20043;-76
2023/01/11 12:09:55;;;;;;;5.38;2.40;;;;;;;;;;4973874;28;20039;-76
2023/01/11 12:12:21;;;;;;;2.47;1.67;;;;;;;;;;4972682;28;20045;-77
2023/01/11 12:15:08;;;;;;;1.38;1.27;;;;;;;;;;4973881;28;20030;-77
2023/01/11 12:17:34;;;;;;;1.70;1.60;;;;;;;;;;4989025;28;20031;-77
2023/01/11 12:19:59;;;;;;;2.15;1.70;;;;;;;;;;4973924;28;20046;-77
2023/01/11 12:22:27;;;;;;;5.15;3.38;;;;;;;;;;4974078;28;20026;-77
2023/01/11 12:25:02;;;;;;;3.35;2.00;;;;;;;;;;4962384;28;20082;-77
2023/01/11 12:27:48;;;;;;;1.67;1.38;;;;;;;;;;4974162;28;20345;-77
2023/01/11 12:30:38;;;;;;;6.22;3.20;;;;;;;;;;4973862;28;20314;-77
2023/01/11 12:33:28;;;;;;;7.30;4.85;;;;;;;;;;4973195;28;20042;-77
2023/01/11 12:36:35;;;;;;;1.75;1.40;;;;;;;;;;4964554;28;20106;-77
2023/01/11 12:39:23;;;;;;;1.75;0.93;;;;;;;;;;4973553;28;20023;-76
2023/01/11 12:42:31;;;;;;;1.67;1.20;;;;;;;;;;4974629;28;20150;-75
2023/01/11 12:45:03;;;;;;;1.95;1.52;;;;;;;;;;4952340;28;20126;-77
2023/01/11 12:47:47;;;;;;;1.55;1.40;;;;;;;;;;4971238;28;20018;-75
2023/01/11 12:50:18;;;;;;;1.23;1.13;;;;;;;;;;4969102;28;20479;-76
2023/01/11 12:53:05;;;;;;;3.92;2.55;;;;;;;;;;4973117;28;20034;-76
2023/01/11 12:55:55;;;;;;;5.40;2.50;;;;;;;;;;4967395;28;20464;-75
2023/01/11 12:58:32;;;;;;;12.23;5.38;;;;;;;;;;4983322;28;20023;-76
2023/01/11 13:01:04;;;;;;;3.00;1.90;;;;;;;;;;4963604;28;20077;-76
2023/01/11 13:03:38;;;;;;;1.60;1.40;;;;;;;;;;4970541;28;20018;-76
2023/01/11 13:06:09;;;;;;;2.60;1.63;;;;;;;;;;4966285;28;20066;-76
2023/01/11 13:09:14;;;;;;;6.18;3.40;;;;;;;;;;4963915;28;20072;-77
2023/01/11 13:12:14;;;;;;;3.83;2.30;;;;;;;;;;4967664;28;20057;-76
2023/01/11 13:14:45;;;;;;;4.57;2.20;;;;;;;;;;4971039;28;20501;-77
2023/01/11 13:17:27;;;;;;;3.33;2.25;;;;;;;;;;4971334;28;20098;-77
2023/01/11 13:20:38;;;;;;;1.88;1.75;;;;;;;;;;4976587;28;20060;-77
2023/01/11 13:23:11;;;;;;;5.05;3.00;;;;;;;;;;4974515;28;20031;-76
2023/01/11 13:25:41;;;;;;;2.63;2.00;;;;;;;;;;4986525;28;20030;-77
2023/01/11 13:28:33;;;;;;;;;;;;;;;;;;4968199;28;20449;-76
2023/01/11 13:31:02;;;;;;;1.70;1.60;;;;;;;;;;4966074;28;19924;-77
2023/01/11 13:33:32;;;;;;;3.33;1.73;;;;;;;;;;4967130;28;20023;-76
2023/01/11 13:35:57;;;;;;;1.60;1.50;;;;;;;;;;4961183;28;20106;-76
2023/01/11 13:38:41;;;;;;;1.30;1.20;;;;;;;;;;4972397;28;20586;-77
2023/01/11 13:41:15;;;;;;;2.15;1.55;;;;;;;;;;4971755;28;20030;-75
2023/01/11 13:44:05;;;;;;;1.35;1.27;;;;;;;;;;4971883;28;20058;-75
2023/01/11 13:46:30;;;;;;;2.33;1.33;;;;;;;;;;4971238;28;20761;-75
2023/01/11 13:49:30;;;;;;;6.18;2.30;;;;;;;;;;4971934;28;20027;-76
2023/01/11 13:52:00;;;;;;;2.72;1.88;;;;;;;;;;4972416;28;20030;-76
2023/01/11 13:55:24;;;;;;;2.03;1.27;;;;;;;;;;4972784;28;20130;-77
2023/01/11 13:58:01;;;;;;;2.28;1.90;;;;;;;;;;4950879;29;20121;-76
2023/01/11 14:00:35;;;;;;;4.15;2.75;;;;;;;;;;4963493;28;20102;-75
2023/01/11 14:03:22;;;;;;;6.07;2.28;;;;;;;;;;4969729;28;20490;-75
2023/01/11 14:06:25;;;;;;;2.47;1.48;;;;;;;;;;4970005;28;20038;-76
2023/01/11 14:09:05;;;;;;;1.38;1.27;;;;;;;;;;4951587;28;20059;-76
2023/01/11 14:12:01;;;;;;;1.88;1.42;;;;;;;;;;4969586;28;20114;-76
2023/01/11 14:14:54;;;;;;;1.80;1.40;;;;;;;;;;4973178;28;20086;-77
2023/01/11 14:17:38;;;;;;;2.35;1.60;;;;;;;;;;4971576;28;20045;-77
2023/01/11 14:20:17;;;;;;;1.55;1.42;;;;;;;;;;4971088;28;20029;-76
2023/01/11 14:22:56;;;;;;;2.22;1.48;;;;;;;;;;4970596;28;20039;-76
2023/01/11 14:25:29;;;;;;;;;;;;;;;;;;4984029;28;20532;-76
2023/01/11 14:28:03;;;;;;;2.83;1.50;;;;;;;;;;4969890;28;19914;-75
2023/01/11 14:30:52;;;;;;;2.63;1.60;;;;;;;;;;4971897;28;20055;-76
2023/01/11 14:33:50;;;;;;;2.35;1.73;;;;;;;;;;4971624;28;20085;-76
2023/01/11 14:36:36;;;;;;;1.90;1.80;;;;;;;;;;4956872;28;20042;-77
2023/01/11 14:39:44;;;;;;;2.08;1.90;;;;;;;;;;4985738;28;20031;-76
2023/01/11 14:42:23;;;;;;;4.80;3.53;;;;;;;;;;4972282;28;20038;-75
2023/01/11 14:44:48;;;;;;;3.80;2.97;;;;;;;;;;4971817;28;20023;-75
2023/01/11 14:47:26;;;;;;;4.32;2.70;;;;;;;;;;4971738;28;20150;-76
2023/01/11 14:50:26;;;;;;;3.63;3.20;;;;;;;;;;4971543;28;20081;-76
2023/01/11 14:52:57;;;;;;;4.05;3.05;;;;;;;;;;4971454;28;20380;-76
2023/01/11 14:55:26;;;;;;;4.13;2.95;;;;;;;;;;4964582;28;20031;-75
2023/01/11 14:57:55;;;;;;;5.55;3.72;;;;;;;;;;4981535;28;20287;-77
2023/01/11 15:00:20;;;;;;;5.68;3.85;;;;;;;;;;4969441;28;20054;-76
2023/01/11 15:02:50;;;;;;;4.72;3.63;;;;;;;;;;4966900;28;20263;-77
2023/01/11 15:05:57;;;;;;;8.77;4.30;;;;;;;;;;4970346;28;20033;-77
2023/01/11 15:08:33;;;;;;;8.00;4.78;;;;;;;;;;4975544;28;20037;-76
2023/01/11 15:11:05;;;;;;;5.15;3.80;;;;;;;;;;4973439;28;20105;-77
2023/01/11 15:13:41;;;;;;;4.80;3.67;;;;;;;;;;4972534;28;20426;-76
2023/01/11 15:19:11;;;;;;;4.15;2.60;;;;;;;;;;4964622;28;20042;-76
2023/01/11 15:21:46;;;;;;;3.90;2.58;;;;;;;;;;4973154;28;20097;-77
2023/01/11 15:24:30;;;;;;;4.38;3.20;;;;;;;;;;4972892;28;20027;-77
2023/01/11 15:26:58;;;;;;;3.85;2.70;;;;;;;;;;4988112;28;20027;-76
2023/01/11 15:29:32;;;;;;;3.65;3.05;;;;;;;;;;4973252;28;20112;-76
2023/01/11 15:32:01;;;;;;;3.20;2.70;;;;;;;;;;4988788;28;20398;-76
2023/01/11 15:34:38;;;;;;;3.08;2.78;;;;;;;;;;4972959;28;20101;-77
2023/01/11 15:37:06;;;;;;;3.25;1.98;;;;;;;;;;4987145;28;20042;-77
2023/01/11 15:39:52;;;;;;;2.92;2.58;;;;;;;;;;4973478;28;20038;-77
2023/01/11 15:42:59;;;;;;;1.98;1.77;;;;;;;;;;4967538;28;20023;-77
2023/01/11 15:48:40;;;;;;;3.90;1.40;;;;;;;;;;4968697;28;20046;-76
2023/01/11 15:51:24;;;;;;;3.05;1.75;;;;;;;;;;4973587;28;20034;-76
2023/01/11 15:54:42;;;;;;;2.50;2.10;;;;;;;;;;4987022;28;20042;-76
2023/01/11 15:57:25;;;;;;;5.78;3.33;;;;;;;;;;4911521;28;20502;-77
2023/01/11 16:00:28;;;;;;;5.35;2.67;;;;;;;;;;4988092;28;20073;-77